FDX4557 VABB-EHAM
Flight info
| Callsign | FDX4557 |
|---|---|
| Flight time | N/A |
| Altitude | 33000 |
| Route | RAXET2A SAKUN DCT KARKU L301 RAGMA DCT MENSA DCT IVOXI P699 SOGAT A453 BHR DCT DAVUS L602 GADSI UM860 CRM UL746 ODERO T86 MATEL T746 ARGES DCT FLR DCT ARD DCT BUG DCT PTB DCT GYR DCT FMD DCT LAMSI L604 RELBI DCT RKN |
| Aircraft | B77L/H-SDE1E2E3FGHIJ2J3J4J5M1RWXY/LB1D1 |
Departure
| Time | 2026-05-04 04:59 |
|---|---|
| Airport | Chhatrapati Shivaji Maharaj International Airport (VABB) |
Arrival
| Time | N/A |
|---|---|
| Airport | Amsterdam Airport Schiphol (EHAM) |
| Time | Latitude | Longitude | Altitude | Speed | Heading |
|---|---|---|---|---|---|
| 2026-05-04 04:22 | 19.09544 | 72.86810 | 40 ft | 0 kts | 322° |
| 2026-05-04 04:49 | 19.09504 | 72.86847 | 37 ft | 2 kts | 279° |
| 2026-05-04 04:49 | 19.09506 | 72.86864 | 37 ft | 2 kts | 231° |
| 2026-05-04 04:49 | 19.09509 | 72.86868 | 36 ft | 0 kts | 217° |
| 2026-05-04 04:53 | 19.09509 | 72.86867 | 36 ft | 0 kts | 218° |
| 2026-05-04 04:53 | 19.09501 | 72.86860 | 36 ft | 5 kts | 223° |
| 2026-05-04 04:53 | 19.09450 | 72.86809 | 40 ft | 14 kts | 215° |
| 2026-05-04 04:54 | 19.09374 | 72.86839 | 40 ft | 14 kts | 109° |
| 2026-05-04 04:54 | 19.09321 | 72.86923 | 39 ft | 15 kts | 134° |
| 2026-05-04 04:54 | 19.09252 | 72.87000 | 38 ft | 15 kts | 124° |
| 2026-05-04 04:54 | 19.09236 | 72.87082 | 38 ft | 0 kts | 89° |
| 2026-05-04 04:55 | 19.09236 | 72.87091 | 38 ft | 2 kts | 89° |
| 2026-05-04 04:55 | 19.09236 | 72.87112 | 38 ft | 4 kts | 89° |
| 2026-05-04 04:55 | 19.09237 | 72.87159 | 37 ft | 9 kts | 89° |
| 2026-05-04 04:55 | 19.09225 | 72.87236 | 37 ft | 12 kts | 126° |
| 2026-05-04 04:56 | 19.09133 | 72.87262 | 38 ft | 15 kts | 177° |
| 2026-05-04 04:56 | 19.09057 | 72.87316 | 38 ft | 16 kts | 105° |
| 2026-05-04 04:56 | 19.09054 | 72.87446 | 37 ft | 20 kts | 89° |
| 2026-05-04 04:56 | 19.09054 | 72.87605 | 37 ft | 23 kts | 89° |
| 2026-05-04 04:57 | 19.09058 | 72.87780 | 37 ft | 23 kts | 88° |
| 2026-05-04 04:57 | 19.09060 | 72.87919 | 37 ft | 10 kts | 89° |
| 2026-05-04 04:57 | 19.09061 | 72.87992 | 37 ft | 10 kts | 89° |
| 2026-05-04 04:57 | 19.09025 | 72.88046 | 37 ft | 10 kts | 163° |
| 2026-05-04 04:58 | 19.08955 | 72.88036 | 35 ft | 10 kts | 196° |
| 2026-05-04 04:58 | 19.08897 | 72.87998 | 36 ft | 10 kts | 240° |
| 2026-05-04 04:58 | 19.08889 | 72.87920 | 36 ft | 16 kts | 268° |
| 2026-05-04 04:58 | 19.08883 | 72.87520 | 37 ft | 96 kts | 270° |
| 2026-05-04 04:59 | 19.08868 | 72.86524 | 36 ft | 174 kts | 269° |
| 2026-05-04 04:59 | 19.08846 | 72.85068 | 401 ft | 203 kts | 269° |
| 2026-05-04 04:59 | 19.08833 | 72.83579 | 1294 ft | 203 kts | 270° |
| 2026-05-04 04:59 | 19.08843 | 72.82079 | 2207 ft | 204 kts | 271° |
| 2026-05-04 05:00 | 19.08889 | 72.80574 | 3053 ft | 207 kts | 273° |
| 2026-05-04 05:00 | 19.08984 | 72.79017 | 3735 ft | 220 kts | 274° |
| 2026-05-04 05:00 | 19.09146 | 72.75525 | 4657 ft | 250 kts | 274° |
| 2026-05-04 05:01 | 19.09285 | 72.73689 | 5355 ft | 249 kts | 275° |
| 2026-05-04 05:01 | 19.09467 | 72.71879 | 6115 ft | 246 kts | 277° |
| 2026-05-04 05:01 | 19.09686 | 72.70084 | 6733 ft | 248 kts | 278° |
| 2026-05-04 05:01 | 19.09944 | 72.68251 | 7189 ft | 256 kts | 279° |
| 2026-05-04 05:02 | 19.10252 | 72.66378 | 7663 ft | 261 kts | 280° |
| 2026-05-04 05:02 | 19.10555 | 72.64492 | 8291 ft | 259 kts | 280° |
| 2026-05-04 05:02 | 19.10883 | 72.62628 | 8874 ft | 258 kts | 282° |
| 2026-05-04 05:02 | 19.11293 | 72.60768 | 9305 ft | 262 kts | 284° |
| 2026-05-04 05:03 | 19.11719 | 72.58858 | 9607 ft | 271 kts | 283° |
| 2026-05-04 05:03 | 19.12082 | 72.56890 | 10082 ft | 274 kts | 277° |
| 2026-05-04 05:04 | 19.12334 | 72.50775 | 11171 ft | 289 kts | 267° |
| 2026-05-04 05:04 | 19.12239 | 72.48618 | 11511 ft | 297 kts | 268° |
| 2026-05-04 05:04 | 19.12216 | 72.46417 | 11903 ft | 303 kts | 271° |
| 2026-05-04 05:06 | 19.13495 | 72.30408 | 14984 ft | 320 kts | 276° |
| 2026-05-04 05:06 | 19.13742 | 72.28056 | 15388 ft | 322 kts | 276° |
| 2026-05-04 05:06 | 19.13992 | 72.25694 | 15783 ft | 324 kts | 276° |
| 2026-05-04 05:07 | 19.14242 | 72.23316 | 16160 ft | 326 kts | 276° |
| 2026-05-04 05:07 | 19.14495 | 72.20919 | 16537 ft | 328 kts | 276° |
| 2026-05-04 05:07 | 19.14748 | 72.18517 | 16901 ft | 330 kts | 276° |
| 2026-05-04 05:09 | 19.20491 | 72.00125 | 19225 ft | 342 kts | 298° |
| 2026-05-04 05:09 | 19.21626 | 71.97905 | 19492 ft | 344 kts | 298° |
| 2026-05-04 05:10 | 19.22762 | 71.95670 | 19743 ft | 346 kts | 298° |
| 2026-05-04 05:10 | 19.23905 | 71.93414 | 20019 ft | 348 kts | 298° |
| 2026-05-04 05:10 | 19.25047 | 71.91153 | 20302 ft | 350 kts | 298° |
| 2026-05-04 05:10 | 19.26194 | 71.88879 | 20570 ft | 351 kts | 298° |
| 2026-05-04 05:11 | 19.27346 | 71.86591 | 20827 ft | 352 kts | 298° |
| 2026-05-04 05:11 | 19.28500 | 71.84298 | 21097 ft | 353 kts | 298° |
| 2026-05-04 05:11 | 19.29654 | 71.82003 | 21364 ft | 354 kts | 298° |
| 2026-05-04 05:11 | 19.30808 | 71.79707 | 21633 ft | 354 kts | 298° |
| 2026-05-04 05:12 | 19.31964 | 71.77406 | 21893 ft | 354 kts | 298° |
| 2026-05-04 05:12 | 19.33120 | 71.75104 | 22158 ft | 353 kts | 298° |
| 2026-05-04 05:12 | 19.34270 | 71.72812 | 22424 ft | 353 kts | 298° |
| 2026-05-04 05:12 | 19.35421 | 71.70519 | 22692 ft | 352 kts | 298° |
| 2026-05-04 05:13 | 19.36563 | 71.68242 | 22942 ft | 350 kts | 298° |
| 2026-05-04 05:13 | 19.37704 | 71.65966 | 23199 ft | 348 kts | 298° |
| 2026-05-04 05:13 | 19.38834 | 71.63710 | 23460 ft | 346 kts | 298° |
| 2026-05-04 05:13 | 19.39960 | 71.61463 | 23718 ft | 344 kts | 297° |
| 2026-05-04 05:14 | 19.41074 | 71.59238 | 23945 ft | 341 kts | 297° |
| 2026-05-04 05:14 | 19.42180 | 71.57030 | 24193 ft | 337 kts | 297° |
| 2026-05-04 05:14 | 19.43269 | 71.54852 | 24439 ft | 333 kts | 297° |
| 2026-05-04 05:14 | 19.44345 | 71.52701 | 24655 ft | 328 kts | 297° |
| 2026-05-04 05:15 | 19.45403 | 71.50585 | 24868 ft | 324 kts | 297° |
| 2026-05-04 05:15 | 19.46469 | 71.48453 | 24661 ft | 341 kts | 297° |
| 2026-05-04 05:15 | 19.47621 | 71.46147 | 24453 ft | 359 kts | 297° |
| 2026-05-04 05:15 | 19.48805 | 71.43776 | 24245 ft | 378 kts | 297° |
| 2026-05-04 05:16 | 19.50049 | 71.41283 | 24299 ft | 388 kts | 297° |
| 2026-05-04 05:16 | 19.51327 | 71.38723 | 24419 ft | 397 kts | 297° |
| 2026-05-04 05:16 | 19.52629 | 71.36112 | 24670 ft | 403 kts | 297° |
| 2026-05-04 05:16 | 19.53940 | 71.33482 | 25069 ft | 404 kts | 297° |
| 2026-05-04 05:17 | 19.55256 | 71.30842 | 25495 ft | 405 kts | 297° |
| 2026-05-04 05:17 | 19.56574 | 71.28196 | 25864 ft | 407 kts | 297° |
| 2026-05-04 05:17 | 19.57900 | 71.25532 | 26204 ft | 410 kts | 297° |
| 2026-05-04 05:17 | 19.59234 | 71.22852 | 26538 ft | 412 kts | 297° |
| 2026-05-04 05:18 | 19.60578 | 71.20152 | 26878 ft | 415 kts | 298° |
| 2026-05-04 05:18 | 19.62040 | 71.17512 | 27204 ft | 417 kts | 303° |
| 2026-05-04 05:18 | 19.63687 | 71.14966 | 27536 ft | 419 kts | 306° |
| 2026-05-04 05:18 | 19.65398 | 71.12474 | 27860 ft | 421 kts | 306° |
| 2026-05-04 05:19 | 19.67143 | 71.09962 | 28179 ft | 423 kts | 306° |
| 2026-05-04 05:19 | 19.68888 | 71.07435 | 28483 ft | 425 kts | 306° |
| 2026-05-04 05:19 | 19.70630 | 71.04882 | 28800 ft | 427 kts | 306° |
| 2026-05-04 05:19 | 19.72368 | 71.02305 | 29098 ft | 429 kts | 305° |
| 2026-05-04 05:20 | 19.74083 | 70.99745 | 29393 ft | 431 kts | 305° |
| 2026-05-04 05:20 | 19.75815 | 70.97144 | 29682 ft | 433 kts | 305° |
| 2026-05-04 05:20 | 19.77561 | 70.94516 | 29962 ft | 435 kts | 305° |
| 2026-05-04 05:20 | 19.79307 | 70.91882 | 30230 ft | 437 kts | 305° |
| 2026-05-04 05:21 | 19.81061 | 70.89236 | 30497 ft | 439 kts | 305° |
| 2026-05-04 05:21 | 19.82830 | 70.86566 | 30759 ft | 441 kts | 305° |
| 2026-05-04 05:21 | 19.84602 | 70.83890 | 31003 ft | 443 kts | 305° |
| 2026-05-04 05:21 | 19.86376 | 70.81212 | 31250 ft | 444 kts | 305° |
| 2026-05-04 05:22 | 19.88157 | 70.78520 | 31485 ft | 446 kts | 305° |
| 2026-05-04 05:22 | 19.89943 | 70.75822 | 31714 ft | 448 kts | 305° |
| 2026-05-04 05:22 | 19.91740 | 70.73106 | 31926 ft | 449 kts | 305° |
| 2026-05-04 05:22 | 19.93540 | 70.70383 | 32158 ft | 451 kts | 305° |
| 2026-05-04 05:23 | 19.95323 | 70.67685 | 32349 ft | 452 kts | 305° |
| 2026-05-04 05:23 | 19.97136 | 70.64940 | 32564 ft | 454 kts | 305° |
| 2026-05-04 05:23 | 19.98955 | 70.62185 | 32762 ft | 455 kts | 305° |
| 2026-05-04 05:23 | 20.00779 | 70.59422 | 32913 ft | 458 kts | 305° |
| 2026-05-04 05:24 | 20.04441 | 70.53868 | 32832 ft | 456 kts | 305° |
| 2026-05-04 05:24 | 20.08080 | 70.48346 | 32594 ft | 456 kts | 305° |
| 2026-05-04 05:25 | 20.09897 | 70.45585 | 32452 ft | 457 kts | 305° |
| 2026-05-04 05:25 | 20.11728 | 70.42804 | 32326 ft | 457 kts | 305° |
| 2026-05-04 05:25 | 20.15377 | 70.37254 | 32130 ft | 457 kts | 305° |
| 2026-05-04 05:26 | 20.19020 | 70.31710 | 32012 ft | 457 kts | 304° |
| 2026-05-04 05:26 | 20.22662 | 70.26160 | 32008 ft | 458 kts | 304° |
| 2026-05-04 05:28 | 20.37560 | 70.03408 | 32016 ft | 490 kts | 304° |
| 2026-05-04 05:29 | 20.41489 | 69.97394 | 32009 ft | 498 kts | 304° |
| 2026-05-04 05:29 | 20.44778 | 69.92353 | 31988 ft | 497 kts | 304° |
| 2026-05-04 05:31 | 20.60461 | 69.68260 | 32000 ft | 492 kts | 304° |
| 2026-05-04 05:32 | 20.64359 | 69.62256 | 32001 ft | 492 kts | 304° |
| 2026-05-04 05:33 | 20.70207 | 69.53237 | 32001 ft | 492 kts | 304° |
| 2026-05-04 05:33 | 20.74096 | 69.47230 | 32002 ft | 492 kts | 304° |
| 2026-05-04 05:34 | 20.77991 | 69.41208 | 32002 ft | 492 kts | 304° |
| 2026-05-04 05:34 | 20.81883 | 69.35185 | 32002 ft | 492 kts | 304° |
| 2026-05-04 05:35 | 20.85752 | 69.29189 | 32002 ft | 493 kts | 304° |
| 2026-05-04 05:35 | 20.89646 | 69.23150 | 32002 ft | 493 kts | 304° |
| 2026-05-04 05:36 | 20.93536 | 69.17109 | 32002 ft | 493 kts | 304° |
| 2026-05-04 05:36 | 20.97349 | 69.10995 | 31994 ft | 493 kts | 300° |
| 2026-05-04 05:37 | 21.00325 | 69.04389 | 32004 ft | 493 kts | 294° |
| 2026-05-04 05:37 | 21.03076 | 68.97657 | 32001 ft | 493 kts | 293° |
| 2026-05-04 05:38 | 21.07240 | 68.87568 | 32001 ft | 493 kts | 294° |
| 2026-05-04 05:38 | 21.10034 | 68.80860 | 32001 ft | 493 kts | 294° |
| 2026-05-04 05:39 | 21.14235 | 68.70779 | 32001 ft | 493 kts | 294° |
| 2026-05-04 05:40 | 21.18416 | 68.60715 | 32001 ft | 493 kts | 294° |
| 2026-05-04 05:40 | 21.21186 | 68.54035 | 32001 ft | 493 kts | 294° |
| 2026-05-04 05:41 | 21.23970 | 68.47315 | 32001 ft | 493 kts | 294° |
| 2026-05-04 05:41 | 21.26750 | 68.40592 | 32001 ft | 493 kts | 294° |
| 2026-05-04 05:42 | 21.29526 | 68.33873 | 32001 ft | 493 kts | 294° |
| 2026-05-04 05:42 | 21.32299 | 68.27150 | 32001 ft | 493 kts | 294° |
| 2026-05-04 05:43 | 21.35074 | 68.20413 | 32001 ft | 493 kts | 294° |
| 2026-05-04 05:45 | 21.46115 | 67.93520 | 32001 ft | 493 kts | 294° |
| 2026-05-04 05:47 | 21.57133 | 67.66537 | 32001 ft | 493 kts | 293° |
| 2026-05-04 05:47 | 21.59882 | 67.59784 | 32001 ft | 493 kts | 293° |
| 2026-05-04 05:48 | 21.62627 | 67.53029 | 32001 ft | 493 kts | 293° |
| 2026-05-04 05:48 | 21.65352 | 67.46313 | 32001 ft | 493 kts | 293° |
| 2026-05-04 05:49 | 21.68088 | 67.39562 | 32001 ft | 493 kts | 293° |
| 2026-05-04 05:49 | 21.70828 | 67.32793 | 32001 ft | 493 kts | 293° |
| 2026-05-04 05:51 | 21.81750 | 67.05712 | 32001 ft | 493 kts | 293° |
| 2026-05-04 05:52 | 21.84458 | 66.98975 | 32001 ft | 493 kts | 293° |
| 2026-05-04 05:52 | 21.87179 | 66.92195 | 32001 ft | 493 kts | 293° |
| 2026-05-04 05:54 | 21.98031 | 66.65061 | 32001 ft | 493 kts | 293° |
| 2026-05-04 05:55 | 22.00741 | 66.58260 | 32001 ft | 493 kts | 293° |
| 2026-05-04 05:55 | 22.03427 | 66.51510 | 32001 ft | 493 kts | 293° |
| 2026-05-04 05:56 | 22.06125 | 66.44720 | 32001 ft | 493 kts | 293° |
| 2026-05-04 05:56 | 22.08826 | 66.37916 | 32001 ft | 493 kts | 293° |
| 2026-05-04 05:57 | 22.11526 | 66.31103 | 32001 ft | 493 kts | 293° |
| 2026-05-04 05:57 | 22.14218 | 66.24302 | 32001 ft | 493 kts | 293° |
| 2026-05-04 05:58 | 22.16910 | 66.17485 | 32001 ft | 493 kts | 293° |
| 2026-05-04 05:58 | 22.19596 | 66.10678 | 32001 ft | 493 kts | 293° |
| 2026-05-04 05:59 | 22.22281 | 66.03863 | 32001 ft | 493 kts | 293° |
| 2026-05-04 05:59 | 22.24943 | 65.97096 | 32001 ft | 493 kts | 293° |
| 2026-05-04 06:00 | 22.27619 | 65.90284 | 32001 ft | 493 kts | 293° |
| 2026-05-04 06:00 | 22.30295 | 65.83462 | 32001 ft | 493 kts | 292° |
| 2026-05-04 06:01 | 22.32967 | 65.76640 | 32001 ft | 493 kts | 292° |
| 2026-05-04 06:03 | 22.43627 | 65.49325 | 32001 ft | 493 kts | 292° |
| 2026-05-04 06:05 | 22.55545 | 65.18596 | 32001 ft | 493 kts | 292° |
| 2026-05-04 06:06 | 22.58188 | 65.11754 | 32001 ft | 493 kts | 292° |
| 2026-05-04 06:06 | 22.60827 | 65.04912 | 32001 ft | 493 kts | 292° |
| 2026-05-04 06:07 | 22.63467 | 64.98056 | 32001 ft | 493 kts | 292° |
| 2026-05-04 06:07 | 22.66105 | 64.91196 | 32001 ft | 493 kts | 292° |
| 2026-05-04 06:08 | 22.68724 | 64.84375 | 32001 ft | 493 kts | 292° |
| 2026-05-04 06:08 | 22.71346 | 64.77537 | 32001 ft | 493 kts | 292° |
| 2026-05-04 06:09 | 22.73982 | 64.70653 | 32001 ft | 493 kts | 292° |
| 2026-05-04 06:11 | 22.84466 | 64.43165 | 32001 ft | 493 kts | 292° |
| 2026-05-04 06:13 | 22.94877 | 64.15700 | 32001 ft | 493 kts | 292° |
| 2026-05-04 06:14 | 23.03966 | 63.91585 | 32001 ft | 493 kts | 292° |
| 2026-05-04 06:15 | 23.05982 | 63.84530 | 32003 ft | 492 kts | 282° |
| 2026-05-04 06:15 | 23.06897 | 63.77111 | 32014 ft | 492 kts | 276° |
| 2026-05-04 06:16 | 23.07606 | 63.69763 | 32002 ft | 493 kts | 276° |
| 2026-05-04 06:16 | 23.08341 | 63.62356 | 32002 ft | 493 kts | 276° |
| 2026-05-04 06:17 | 23.09099 | 63.54957 | 32002 ft | 493 kts | 276° |
| 2026-05-04 06:17 | 23.09734 | 63.48805 | 32002 ft | 493 kts | 276° |
| 2026-05-04 06:18 | 23.10496 | 63.41388 | 32002 ft | 493 kts | 276° |
| 2026-05-04 06:20 | 23.13498 | 63.11758 | 32001 ft | 493 kts | 276° |
| 2026-05-04 06:21 | 23.15340 | 62.93290 | 32001 ft | 493 kts | 276° |
| 2026-05-04 06:22 | 23.16074 | 62.85873 | 32001 ft | 493 kts | 276° |
| 2026-05-04 06:25 | 23.21101 | 62.34042 | 32001 ft | 493 kts | 276° |
| 2026-05-04 06:26 | 23.21805 | 62.26633 | 32001 ft | 493 kts | 276° |
| 2026-05-04 06:26 | 23.22507 | 62.19214 | 32001 ft | 493 kts | 276° |
| 2026-05-04 06:27 | 23.24242 | 62.00713 | 32001 ft | 493 kts | 276° |
| 2026-05-04 06:28 | 23.24930 | 61.93303 | 32001 ft | 493 kts | 276° |
| 2026-05-04 06:28 | 23.25616 | 61.85882 | 32001 ft | 493 kts | 276° |
| 2026-05-04 06:29 | 23.26299 | 61.78460 | 32001 ft | 493 kts | 276° |
| 2026-05-04 06:29 | 23.26978 | 61.71037 | 32001 ft | 493 kts | 276° |
| 2026-05-04 06:30 | 23.27649 | 61.63662 | 32001 ft | 493 kts | 275° |
| 2026-05-04 06:30 | 23.28320 | 61.56248 | 32001 ft | 493 kts | 275° |
| 2026-05-04 06:31 | 23.28989 | 61.48824 | 32001 ft | 493 kts | 275° |
| 2026-05-04 06:31 | 23.29654 | 61.41394 | 32001 ft | 493 kts | 275° |
| 2026-05-04 06:33 | 23.32435 | 61.11720 | 32003 ft | 493 kts | 278° |
| 2026-05-04 06:34 | 23.33416 | 61.04401 | 32001 ft | 493 kts | 278° |
| 2026-05-04 06:34 | 23.34381 | 60.97011 | 32001 ft | 493 kts | 278° |
| 2026-05-04 06:36 | 23.38112 | 60.67436 | 32000 ft | 493 kts | 281° |
| 2026-05-04 06:37 | 23.40039 | 60.60283 | 32003 ft | 493 kts | 292° |
| 2026-05-04 06:37 | 23.42803 | 60.53455 | 32008 ft | 493 kts | 294° |
| 2026-05-04 06:38 | 23.45607 | 60.46640 | 32001 ft | 493 kts | 294° |
| 2026-05-04 06:40 | 23.56596 | 60.19292 | 32001 ft | 493 kts | 293° |
| 2026-05-04 06:40 | 23.59335 | 60.12430 | 32001 ft | 493 kts | 293° |
| 2026-05-04 06:41 | 23.62074 | 60.05560 | 32001 ft | 493 kts | 293° |
| 2026-05-04 06:41 | 23.64808 | 59.98694 | 32001 ft | 493 kts | 293° |
| 2026-05-04 06:42 | 23.67520 | 59.91871 | 32001 ft | 493 kts | 293° |
| 2026-05-04 06:44 | 23.78404 | 59.64382 | 32001 ft | 493 kts | 293° |
| 2026-05-04 06:44 | 23.81116 | 59.57506 | 32001 ft | 493 kts | 293° |
| 2026-05-04 06:45 | 23.83823 | 59.50633 | 32001 ft | 493 kts | 293° |
| 2026-05-04 06:45 | 23.86516 | 59.43786 | 32001 ft | 493 kts | 293° |
| 2026-05-04 06:46 | 23.89222 | 59.36893 | 32001 ft | 493 kts | 293° |
| 2026-05-04 06:46 | 23.91921 | 59.30008 | 32001 ft | 493 kts | 293° |
| 2026-05-04 06:48 | 24.01374 | 59.05807 | 32012 ft | 506 kts | 293° |
| 2026-05-04 06:48 | 24.02762 | 59.02242 | 32006 ft | 507 kts | 293° |
| 2026-05-04 06:50 | 24.13780 | 58.73846 | 32000 ft | 504 kts | 292° |
| 2026-05-04 06:51 | 24.16515 | 58.66769 | 32000 ft | 503 kts | 292° |
| 2026-05-04 06:51 | 24.19239 | 58.59708 | 32001 ft | 502 kts | 292° |
| 2026-05-04 06:52 | 24.21942 | 58.52689 | 32001 ft | 502 kts | 292° |
| 2026-05-04 06:52 | 24.24655 | 58.45635 | 32001 ft | 502 kts | 292° |
| 2026-05-04 06:53 | 24.27359 | 58.38593 | 32002 ft | 502 kts | 292° |
| 2026-05-04 06:53 | 24.30071 | 58.31517 | 32002 ft | 503 kts | 292° |
| 2026-05-04 06:54 | 24.32776 | 58.24447 | 32002 ft | 503 kts | 292° |
| 2026-05-04 06:54 | 24.35480 | 58.17371 | 32002 ft | 503 kts | 292° |
| 2026-05-04 06:55 | 24.38184 | 58.10280 | 32002 ft | 504 kts | 292° |
| 2026-05-04 06:55 | 24.40886 | 58.03184 | 32002 ft | 504 kts | 292° |
| 2026-05-04 06:57 | 24.51634 | 57.74843 | 32001 ft | 504 kts | 292° |
| 2026-05-04 06:58 | 24.54318 | 57.67735 | 32001 ft | 504 kts | 292° |
| 2026-05-04 06:58 | 24.56998 | 57.60625 | 32001 ft | 504 kts | 292° |
| 2026-05-04 06:59 | 24.59683 | 57.53492 | 32001 ft | 503 kts | 292° |
| 2026-05-04 06:59 | 24.62357 | 57.46377 | 32001 ft | 503 kts | 292° |
| 2026-05-04 07:01 | 24.73005 | 57.17920 | 32001 ft | 503 kts | 292° |
| 2026-05-04 07:02 | 24.75660 | 57.10794 | 32001 ft | 503 kts | 292° |
| 2026-05-04 07:02 | 24.78315 | 57.03655 | 32001 ft | 503 kts | 292° |
| 2026-05-04 07:03 | 24.80949 | 56.96563 | 32001 ft | 503 kts | 292° |
| 2026-05-04 07:03 | 24.83595 | 56.89423 | 32001 ft | 503 kts | 292° |
| 2026-05-04 07:04 | 24.86242 | 56.82271 | 32001 ft | 503 kts | 292° |
| 2026-05-04 07:04 | 24.88881 | 56.75127 | 32001 ft | 503 kts | 292° |
| 2026-05-04 07:05 | 24.91502 | 56.68018 | 32001 ft | 503 kts | 292° |
| 2026-05-04 07:05 | 24.94129 | 56.60882 | 32001 ft | 503 kts | 292° |
| 2026-05-04 07:06 | 24.97569 | 56.49957 | 32007 ft | 503 kts | 283° |
| 2026-05-04 07:07 | 24.99192 | 56.42444 | 32004 ft | 503 kts | 283° |
| 2026-05-04 07:09 | 25.05507 | 56.13652 | 32010 ft | 507 kts | 283° |
| 2026-05-04 07:09 | 25.07162 | 56.06132 | 32006 ft | 508 kts | 283° |
| 2026-05-04 07:10 | 25.08827 | 55.98546 | 32003 ft | 508 kts | 283° |
| 2026-05-04 07:12 | 25.15402 | 55.68392 | 32000 ft | 504 kts | 283° |
| 2026-05-04 07:12 | 25.17033 | 55.60861 | 32001 ft | 503 kts | 283° |
| 2026-05-04 07:13 | 25.18657 | 55.53348 | 32001 ft | 503 kts | 283° |
| 2026-05-04 07:13 | 25.20181 | 55.45818 | 31996 ft | 502 kts | 278° |
| 2026-05-04 07:14 | 25.19469 | 55.30501 | 31989 ft | 502 kts | 259° |
| 2026-05-04 07:14 | 25.18854 | 55.26740 | 32003 ft | 502 kts | 260° |
| 2026-05-04 07:15 | 25.17664 | 55.19130 | 32003 ft | 503 kts | 261° |
| 2026-05-04 07:15 | 25.16556 | 55.11501 | 32004 ft | 503 kts | 263° |
| 2026-05-04 07:16 | 25.15823 | 55.03815 | 32004 ft | 504 kts | 264° |
| 2026-05-04 07:16 | 25.15235 | 54.96117 | 31989 ft | 504 kts | 269° |
| 2026-05-04 07:17 | 25.15738 | 54.88418 | 32000 ft | 503 kts | 279° |
| 2026-05-04 07:17 | 25.16938 | 54.80794 | 31999 ft | 504 kts | 280° |
| 2026-05-04 07:18 | 25.18118 | 54.73206 | 32002 ft | 504 kts | 279° |
| 2026-05-04 07:18 | 25.19251 | 54.65576 | 32001 ft | 504 kts | 279° |
| 2026-05-04 07:19 | 25.20374 | 54.57937 | 32001 ft | 504 kts | 279° |
| 2026-05-04 07:19 | 25.21683 | 54.50346 | 32002 ft | 503 kts | 285° |
| 2026-05-04 07:20 | 25.23605 | 54.42900 | 32005 ft | 503 kts | 286° |
| 2026-05-04 07:20 | 25.25517 | 54.35455 | 32001 ft | 504 kts | 285° |
| 2026-05-04 07:22 | 25.32738 | 54.05584 | 32002 ft | 503 kts | 283° |
| 2026-05-04 07:23 | 25.34289 | 53.98025 | 32001 ft | 503 kts | 283° |
| 2026-05-04 07:23 | 25.35878 | 53.90482 | 32002 ft | 503 kts | 283° |
| 2026-05-04 07:24 | 25.37478 | 53.82940 | 32002 ft | 503 kts | 283° |
| 2026-05-04 07:24 | 25.39043 | 53.75443 | 32002 ft | 503 kts | 283° |
| 2026-05-04 07:26 | 25.45319 | 53.45249 | 32001 ft | 503 kts | 283° |
| 2026-05-04 07:27 | 25.46890 | 53.37693 | 32001 ft | 503 kts | 283° |
| 2026-05-04 07:27 | 25.48452 | 53.30147 | 32001 ft | 503 kts | 283° |
| 2026-05-04 07:28 | 25.50001 | 53.22644 | 32001 ft | 503 kts | 283° |
| 2026-05-04 07:28 | 25.51558 | 53.15076 | 32001 ft | 503 kts | 283° |
| 2026-05-04 07:29 | 25.53108 | 53.07515 | 32001 ft | 503 kts | 283° |
| 2026-05-04 07:29 | 25.54655 | 52.99952 | 32001 ft | 503 kts | 283° |
| 2026-05-04 07:30 | 25.56349 | 52.92433 | 31991 ft | 503 kts | 288° |
| 2026-05-04 07:30 | 25.59097 | 52.85315 | 32002 ft | 503 kts | 298° |
| 2026-05-04 07:31 | 25.62481 | 52.78516 | 32005 ft | 503 kts | 299° |
| 2026-05-04 07:33 | 25.75799 | 52.51219 | 32001 ft | 504 kts | 298° |
| 2026-05-04 07:33 | 25.79059 | 52.44339 | 32001 ft | 504 kts | 297° |
| 2026-05-04 07:34 | 25.82280 | 52.37420 | 32001 ft | 504 kts | 297° |
| 2026-05-04 07:34 | 25.85502 | 52.30519 | 32001 ft | 504 kts | 297° |
| 2026-05-04 07:35 | 25.88727 | 52.23609 | 32001 ft | 504 kts | 297° |
| 2026-05-04 07:35 | 25.91933 | 52.16678 | 32001 ft | 504 kts | 297° |
| 2026-05-04 07:36 | 25.95129 | 52.09755 | 32001 ft | 504 kts | 297° |